createdAt,value
2018-02-03T00:00:23.682Z,16.02
2018-02-03T00:02:51.217Z,15.55
2018-02-03T00:05:18.689Z,15.60
2018-02-03T00:07:46.141Z,15.35
2018-02-03T00:10:13.581Z,15.38
2018-02-03T00:12:41.033Z,14.20
2018-02-03T00:15:08.528Z,15.23
2018-02-03T00:17:35.962Z,13.48
2018-02-03T00:20:03.391Z,14.87
2018-02-03T00:22:30.894Z,13.27
2018-02-03T00:24:58.341Z,15.35
2018-02-03T00:27:25.787Z,14.40
2018-02-03T00:29:53.213Z,14.55
2018-02-03T00:32:20.709Z,15.10
2018-02-03T00:34:48.152Z,14.90
2018-02-03T00:37:15.638Z,15.68
2018-02-03T00:39:43.074Z,15.90
2018-02-03T00:42:10.509Z,15.40
2018-02-03T00:44:37.953Z,16.15
2018-02-03T00:47:05.545Z,15.40
2018-02-03T00:49:32.974Z,16.40
2018-02-03T00:52:00.461Z,15.35
2018-02-03T00:54:27.927Z,15.93
2018-02-03T00:56:55.381Z,18.12
2018-02-03T00:59:22.838Z,16.27
2018-02-03T01:01:50.295Z,20.17
2018-02-03T01:04:17.725Z,16.83
2018-02-03T01:06:45.155Z,17.85
2018-02-03T01:09:13.390Z,18.08
2018-02-03T01:11:40.842Z,21.60
2018-02-03T01:14:08.300Z,22.60
2018-02-03T01:16:35.722Z,18.30
2018-02-03T01:19:03.193Z,19.70
2018-02-03T01:21:30.663Z,17.63
2018-02-03T01:23:58.426Z,17.63
2018-02-03T01:26:25.861Z,20.20
2018-02-03T01:28:53.333Z,17.00
2018-02-03T01:31:20.786Z,16.60
2018-02-03T01:33:48.213Z,15.88
2018-02-03T01:36:15.658Z,16.80
2018-02-03T01:38:43.080Z,18.92
2018-02-03T01:41:10.520Z,19.55
2018-02-03T01:43:37.938Z,17.02
2018-02-03T01:46:05.375Z,17.42
2018-02-03T01:48:33.653Z,18.15
2018-02-03T01:51:01.858Z,19.25
2018-02-03T01:53:29.324Z,18.10
2018-02-03T01:55:56.754Z,16.67
2018-02-03T01:58:24.238Z,18.10
2018-02-03T02:00:51.790Z,16.60
2018-02-03T02:03:19.213Z,19.12
2018-02-03T02:05:46.812Z,18.67
2018-02-03T02:08:14.373Z,19.67
2018-02-03T02:10:41.929Z,18.48
2018-02-03T02:13:09.485Z,19.37
2018-02-03T02:15:36.952Z,17.90
2018-02-03T02:18:04.595Z,17.27
2018-02-03T02:20:32.061Z,20.40
2018-02-03T02:22:59.576Z,17.55
2018-02-03T02:25:26.982Z,21.15
2018-02-03T02:27:54.416Z,19.37
2018-02-03T02:30:21.889Z,19.83
2018-02-03T02:32:49.350Z,20.05
2018-02-03T02:35:16.793Z,20.98
2018-02-03T02:37:44.225Z,18.90
2018-02-03T02:40:11.813Z,18.02
2018-02-03T02:42:39.251Z,16.98
2018-02-03T02:45:06.669Z,18.83
2018-02-03T02:47:34.899Z,20.40
2018-02-03T02:50:02.358Z,19.55
2018-02-03T02:52:29.794Z,15.95
2018-02-03T02:54:57.266Z,17.10
2018-02-03T02:57:24.717Z,18.30
2018-02-03T02:59:52.184Z,16.95
2018-02-03T03:02:19.646Z,19.25
2018-02-03T03:04:47.101Z,18.50
2018-02-03T03:07:14.541Z,17.55
2018-02-03T03:09:41.957Z,19.70
2018-02-03T03:12:10.185Z,17.62
2018-02-03T03:14:37.633Z,18.48
2018-02-03T03:17:05.065Z,18.12
2018-02-03T03:19:32.541Z,19.27
2018-02-03T03:22:00.089Z,18.75
2018-02-03T03:24:27.501Z,20.20
2018-02-03T03:26:55.733Z,18.20
2018-02-03T03:29:23.169Z,19.60
2018-02-03T03:31:50.612Z,17.60
2018-02-03T03:34:18.101Z,17.65
2018-02-03T03:36:45.558Z,16.03
2018-02-03T03:39:12.993Z,16.10
2018-02-03T03:41:40.475Z,16.52
2018-02-03T03:44:07.923Z,18.20
2018-02-03T03:46:35.357Z,15.30
2018-02-03T03:49:02.806Z,16.65
2018-02-03T03:51:30.244Z,17.40
2018-02-03T03:53:58.449Z,16.90
2018-02-03T03:56:25.885Z,17.15
2018-02-03T03:58:53.390Z,15.05
2018-02-03T04:01:20.814Z,16.85
2018-02-03T04:03:48.288Z,15.80
2018-02-03T04:06:16.490Z,17.80
2018-02-03T04:08:43.921Z,18.12
2018-02-03T04:11:11.345Z,19.00
2018-02-03T04:13:38.837Z,19.37
2018-02-03T04:16:06.260Z,19.35
2018-02-03T04:18:33.751Z,19.98
2018-02-03T04:21:01.187Z,19.60
2018-02-03T04:23:28.621Z,20.98
2018-02-03T04:25:56.167Z,20.33
2018-02-03T04:28:23.672Z,20.05
2018-02-03T04:30:51.115Z,20.30
2018-02-03T04:33:18.541Z,22.60
2018-02-03T04:35:46.761Z,22.00
2018-02-03T04:38:14.184Z,19.77
2018-02-03T04:40:41.678Z,19.35
2018-02-03T04:43:09.115Z,21.10
2018-02-03T04:45:36.552Z,20.88
2018-02-03T04:48:03.989Z,20.88
2018-02-03T04:50:32.193Z,25.27
2018-02-03T04:52:59.681Z,23.17
2018-02-03T04:55:27.233Z,19.87
2018-02-03T04:57:54.661Z,20.25
2018-02-03T05:00:22.178Z,22.58
2018-02-03T05:02:49.700Z,20.90
2018-02-03T05:05:17.133Z,21.92
2018-02-03T05:07:44.556Z,21.35
2018-02-03T05:10:12.758Z,25.10
2018-02-03T05:12:40.334Z,21.05
2018-02-03T05:15:07.741Z,23.17
2018-02-03T05:17:35.942Z,25.55
2018-02-03T05:20:03.369Z,27.90
2018-02-03T05:22:30.801Z,27.03
2018-02-03T05:24:58.230Z,25.70
2018-02-03T05:27:25.682Z,27.23
2018-02-03T05:29:53.166Z,26.42
2018-02-03T05:32:20.722Z,29.80
2018-02-03T05:34:48.154Z,28.87
2018-02-03T05:37:15.666Z,26.35
2018-02-03T05:39:43.031Z,27.50
2018-02-03T05:42:11.229Z,28.35
2018-02-03T05:44:40.253Z,28.55
2018-02-03T05:47:07.693Z,28.23
2018-02-03T05:49:35.142Z,28.33
2018-02-03T05:52:02.581Z,28.30
2018-02-03T05:54:30.332Z,27.65
2018-02-03T05:56:58.554Z,35.08
2018-02-03T05:59:25.985Z,27.25
2018-02-03T06:01:53.420Z,27.50
2018-02-03T06:04:21.612Z,30.35
2018-02-03T06:06:49.056Z,26.80
2018-02-03T06:09:16.484Z,27.48
2018-02-03T06:11:44.013Z,29.50
2018-02-03T06:14:11.468Z,29.85
2018-02-03T06:16:38.881Z,28.23
2018-02-03T06:19:07.070Z,24.95
2018-02-03T06:21:34.521Z,26.70
2018-02-03T06:24:02.020Z,28.23
2018-02-03T06:26:29.461Z,28.05
2018-02-03T06:28:56.898Z,26.80
2018-02-03T06:31:24.330Z,27.45
2018-02-03T06:33:52.534Z,26.58
2018-02-03T06:36:19.962Z,27.00
2018-02-03T06:38:48.166Z,27.92
2018-02-03T06:41:15.584Z,27.73
2018-02-03T06:43:43.874Z,24.90
2018-02-03T06:46:11.413Z,23.38
2018-02-03T06:48:39.648Z,24.50
2018-02-03T06:51:07.078Z,27.62
2018-02-03T06:53:34.513Z,26.73
2018-02-03T06:56:02.014Z,24.08
2018-02-03T06:58:29.475Z,21.12
2018-02-03T07:00:56.921Z,23.40
2018-02-03T07:03:24.353Z,19.15
2018-02-03T07:05:51.833Z,22.35
2018-02-03T07:08:19.271Z,22.85
2018-02-03T07:10:46.701Z,20.58
2018-02-03T07:13:14.146Z,24.23
2018-02-03T07:15:42.350Z,18.40
2018-02-03T07:18:09.781Z,22.52
2018-02-03T07:20:37.979Z,20.52
2018-02-03T07:23:05.401Z,19.75
2018-02-03T07:25:32.906Z,23.15
2018-02-03T07:28:00.318Z,21.65
2018-02-03T07:30:28.518Z,26.50
2018-02-03T07:32:55.957Z,20.98
2018-02-03T07:35:24.156Z,18.83
2018-02-03T07:37:51.590Z,21.90
2018-02-03T07:40:19.789Z,20.15
2018-02-03T07:42:47.264Z,21.85
2018-02-03T07:45:14.730Z,22.77
2018-02-03T07:47:42.178Z,20.70
2018-02-03T07:50:09.741Z,18.73
2018-02-03T07:52:37.166Z,21.98
2018-02-03T07:55:04.657Z,20.42
2018-02-03T07:57:32.090Z,18.92
2018-02-03T07:59:59.526Z,21.62
2018-02-03T08:02:26.955Z,19.37
2018-02-03T08:04:54.469Z,18.25
2018-02-03T08:07:21.901Z,20.90
2018-02-03T08:09:49.390Z,17.30
2018-02-03T08:12:16.853Z,19.60
2018-02-03T08:14:44.305Z,18.87
2018-02-03T08:17:11.765Z,19.00
2018-02-03T08:19:39.253Z,19.87
2018-02-03T08:22:06.666Z,20.37
2018-02-03T08:24:34.097Z,19.73
2018-02-03T08:27:01.529Z,23.42
2018-02-03T08:29:29.861Z,19.08
2018-02-03T08:31:57.330Z,19.73
2018-02-03T08:34:24.752Z,18.75
2018-02-03T08:36:52.226Z,19.05
2018-02-03T08:39:19.768Z,19.45
2018-02-03T08:41:47.238Z,19.33
2018-02-03T08:44:14.783Z,19.40
2018-02-03T08:46:42.255Z,17.80
2018-02-03T08:49:09.737Z,17.80
2018-02-03T08:51:37.266Z,19.90
2018-02-03T08:54:04.709Z,17.87
2018-02-03T08:56:32.147Z,17.05
2018-02-03T08:58:59.590Z,18.12
2018-02-03T09:01:27.796Z,18.45
2018-02-03T09:03:55.269Z,17.77
2018-02-03T09:06:23.125Z,16.60
2018-02-03T09:08:50.586Z,15.95
2018-02-03T09:11:18.010Z,15.30
2018-02-03T09:13:45.504Z,15.98
2018-02-03T09:16:12.933Z,17.58
2018-02-03T09:18:40.418Z,16.25
2018-02-03T09:21:07.873Z,16.33
2018-02-03T09:23:35.329Z,15.55
2018-02-03T09:26:02.758Z,16.77
2018-02-03T09:28:30.535Z,16.12
2018-02-03T09:30:57.970Z,14.10
2018-02-03T09:33:25.573Z,15.40
2018-02-03T09:35:53.013Z,14.82
2018-02-03T09:38:20.462Z,14.00
2018-02-03T09:40:48.685Z,14.50
2018-02-03T09:43:17.640Z,14.05
2018-02-03T09:45:45.074Z,14.70
2018-02-03T09:48:12.571Z,13.85
2018-02-03T09:50:39.998Z,14.13
2018-02-03T09:53:07.425Z,13.68
2018-02-03T09:55:34.945Z,13.62
2018-02-03T09:58:02.382Z,13.40
2018-02-03T10:00:29.801Z,14.43
2018-02-03T10:02:58.011Z,13.40
2018-02-03T10:05:25.446Z,14.52
2018-02-03T10:07:53.373Z,14.00
2018-02-03T10:10:20.935Z,13.15
2018-02-03T10:12:48.358Z,12.50
2018-02-03T10:15:15.845Z,12.55
2018-02-03T10:17:43.389Z,14.18
2018-02-03T10:20:10.849Z,14.23
2018-02-03T10:22:38.285Z,12.68
2018-02-03T10:25:05.790Z,13.05
2018-02-03T10:27:33.314Z,15.40
2018-02-03T10:30:00.781Z,15.23
2018-02-03T10:32:28.309Z,13.38
2018-02-03T10:34:55.778Z,13.55
2018-02-03T10:37:23.234Z,13.40
2018-02-03T10:39:50.678Z,13.43
2018-02-03T10:42:18.113Z,13.48
2018-02-03T10:44:45.610Z,13.75
2018-02-03T10:47:13.049Z,13.57
2018-02-03T10:49:40.527Z,12.27
2018-02-03T10:52:07.958Z,13.35
2018-02-03T10:54:35.445Z,13.75
2018-02-03T10:57:02.870Z,12.37
2018-02-03T10:59:30.436Z,12.50
2018-02-03T11:01:57.920Z,11.77
2018-02-03T11:04:25.365Z,12.45
2018-02-03T11:06:52.828Z,12.70
2018-02-03T11:09:20.269Z,11.85
2018-02-03T11:11:47.710Z,12.37
2018-02-03T11:14:15.150Z,12.45
2018-02-03T11:16:42.593Z,11.30
2018-02-03T11:19:10.829Z,11.48
2018-02-03T11:21:38.277Z,11.20
2018-02-03T11:24:05.722Z,11.38
2018-02-03T11:26:33.162Z,12.00
2018-02-03T11:29:00.830Z,11.68
2018-02-03T11:31:28.250Z,11.70
2018-02-03T11:33:56.632Z,11.40
2018-02-03T11:36:24.840Z,12.60
2018-02-03T11:38:52.322Z,11.43
2018-02-03T11:41:19.861Z,10.50
2018-02-03T11:43:47.349Z,12.57
2018-02-03T11:46:15.029Z,10.55
2018-02-03T11:48:42.630Z,10.27
2018-02-03T11:51:10.078Z,10.25
2018-02-03T11:53:37.561Z,10.73
2018-02-03T11:56:05.005Z,10.98
2018-02-03T11:58:32.456Z,10.13
2018-02-03T12:00:59.886Z,10.45
2018-02-03T12:03:27.330Z,8.45
2018-02-03T12:05:55.603Z,8.80
2018-02-03T12:08:23.124Z,8.73
2018-02-03T12:10:50.676Z,9.27
2018-02-03T12:13:18.117Z,8.90
2018-02-03T12:15:45.525Z,8.98
2018-02-03T12:18:13.140Z,8.85
2018-02-03T12:20:40.570Z,9.50
2018-02-03T12:23:08.038Z,9.55
2018-02-03T12:25:35.474Z,8.93
2018-02-03T12:28:03.078Z,9.20
2018-02-03T12:30:30.530Z,8.35
2018-02-03T12:32:57.949Z,8.52
2018-02-03T12:35:25.528Z,9.00
2018-02-03T12:37:52.983Z,9.55
2018-02-03T12:40:20.439Z,9.50
2018-02-03T12:42:47.915Z,9.85
2018-02-03T12:45:15.334Z,9.10
2018-02-03T12:47:42.766Z,10.00
2018-02-03T12:50:10.381Z,9.15
2018-02-03T12:52:37.841Z,9.10
2018-02-03T12:55:05.296Z,10.00
2018-02-03T12:57:32.717Z,9.57
2018-02-03T13:00:00.314Z,9.50
2018-02-03T13:02:27.762Z,8.80
2018-02-03T13:04:55.207Z,9.25
2018-02-03T13:07:22.626Z,8.15
2018-02-03T13:09:50.827Z,8.27
2018-02-03T13:12:18.401Z,9.20
2018-02-03T13:14:45.838Z,9.25
2018-02-03T13:17:13.520Z,9.30
2018-02-03T13:19:40.990Z,9.55
2018-02-03T13:22:08.419Z,9.43
2018-02-03T13:24:35.845Z,9.55
2018-02-03T13:27:04.045Z,9.27
2018-02-03T13:29:31.489Z,10.20
2018-02-03T13:31:58.992Z,10.32
2018-02-03T13:34:26.515Z,9.35
2018-02-03T13:36:54.010Z,9.40
2018-02-03T13:39:21.457Z,10.50
2018-02-03T13:41:48.893Z,10.00
2018-02-03T13:44:16.319Z,9.50
2018-02-03T13:46:44.550Z,10.57
2018-02-03T13:49:12.084Z,9.50
2018-02-03T13:51:39.486Z,8.90
2018-02-03T13:54:06.909Z,9.55
2018-02-03T13:56:34.333Z,8.93
2018-02-03T13:59:01.822Z,9.10
2018-02-03T14:01:29.279Z,11.68
2018-02-03T14:03:56.744Z,9.48
2018-02-03T14:06:24.157Z,10.70
2018-02-03T14:08:51.577Z,9.95
2018-02-03T14:11:19.122Z,10.45
2018-02-03T14:13:46.554Z,10.10
2018-02-03T14:16:14.115Z,10.07
2018-02-03T14:18:41.683Z,11.20
2018-02-03T14:21:09.116Z,11.52
2018-02-03T14:23:36.555Z,10.30
2018-02-03T14:26:09.763Z,11.20
2018-02-03T14:28:37.206Z,11.00
2018-02-03T14:31:04.634Z,11.57
2018-02-03T14:33:32.831Z,10.88
2018-02-03T14:36:00.282Z,11.52
2018-02-03T14:38:27.882Z,11.93
2018-02-03T14:40:55.552Z,11.35
2018-02-03T14:43:22.998Z,11.25
2018-02-03T14:45:50.447Z,11.88
2018-02-03T14:48:17.873Z,11.07
2018-02-03T14:50:45.318Z,11.20
2018-02-03T14:53:13.522Z,11.30
2018-02-03T14:55:40.957Z,10.07
2018-02-03T14:58:08.445Z,9.90
2018-02-03T15:00:36.019Z,9.65
2018-02-03T15:03:03.457Z,9.60
2018-02-03T15:05:30.906Z,10.55
2018-02-03T15:07:58.364Z,9.48
2018-02-03T15:10:25.782Z,9.15
2018-02-03T15:12:53.974Z,9.77
2018-02-03T15:15:22.187Z,9.25
2018-02-03T15:17:49.630Z,9.00
2018-02-03T15:20:17.093Z,10.90
2018-02-03T15:22:44.537Z,9.55
2018-02-03T15:25:12.009Z,10.25
2018-02-03T15:27:39.438Z,11.95
2018-02-03T15:30:06.952Z,9.38
2018-02-03T15:32:34.473Z,8.90
2018-02-03T15:35:01.945Z,10.30
2018-02-03T15:37:29.506Z,9.68
2018-02-03T15:39:56.962Z,9.07
2018-02-03T15:42:24.401Z,10.68
2018-02-03T15:44:52.824Z,11.02
2018-02-03T15:47:20.332Z,10.50
2018-02-03T15:49:47.761Z,10.73
2018-02-03T15:52:15.238Z,10.10
2018-02-03T15:54:42.645Z,10.43
2018-02-03T15:57:10.065Z,9.90
2018-02-03T15:59:37.517Z,11.10
2018-02-03T16:02:05.012Z,11.27
2018-02-03T16:04:32.428Z,11.07
2018-02-03T16:06:59.890Z,10.70
2018-02-03T16:09:27.325Z,10.57
2018-02-03T16:11:54.809Z,10.77
2018-02-03T16:14:22.244Z,10.88
2018-02-03T16:16:49.728Z,11.00
2018-02-03T16:19:17.277Z,10.43
2018-02-03T16:21:45.601Z,10.90
2018-02-03T16:24:13.813Z,10.35
2018-02-03T16:26:41.246Z,9.52
2018-02-03T16:29:08.677Z,9.70
2018-02-03T16:31:36.874Z,10.50
2018-02-03T16:34:05.191Z,9.10
2018-02-03T16:36:32.636Z,9.35
2018-02-03T16:39:00.073Z,8.73
2018-02-03T16:41:27.510Z,8.88
2018-02-03T16:43:55.707Z,9.07
2018-02-03T16:46:23.141Z,8.45
2018-02-03T16:48:51.446Z,9.27
2018-02-03T16:51:18.900Z,8.23
2018-02-03T16:53:46.373Z,8.80
2018-02-03T16:56:13.806Z,8.23
2018-02-03T16:58:41.245Z,8.43
2018-02-03T17:01:08.733Z,7.30
2018-02-03T17:03:36.197Z,7.78
2018-02-03T17:06:03.692Z,7.93
2018-02-03T17:08:31.100Z,6.90
2018-02-03T17:10:58.652Z,7.72
2018-02-03T17:13:26.753Z,8.18
2018-02-03T17:15:54.196Z,7.50
2018-02-03T17:18:21.625Z,7.12
2018-02-03T17:20:49.937Z,7.65
2018-02-03T17:23:17.373Z,7.75
2018-02-03T17:25:44.961Z,7.10
2018-02-03T17:28:12.381Z,6.72
2018-02-03T17:30:39.808Z,7.05
2018-02-03T17:33:07.306Z,8.70
2018-02-03T17:35:34.754Z,7.07
2018-02-03T17:38:07.837Z,7.20
2018-02-03T17:40:35.328Z,8.25
2018-02-03T17:43:02.780Z,7.30
2018-02-03T17:45:36.147Z,8.43
2018-02-03T17:48:03.634Z,8.27
2018-02-03T17:50:31.166Z,8.70
2018-02-03T17:52:58.641Z,8.90
2018-02-03T17:55:31.945Z,9.65
2018-02-03T17:57:59.367Z,8.60
2018-02-03T18:00:26.785Z,9.38
2018-02-03T18:02:55.005Z,8.85
2018-02-03T18:05:22.450Z,9.00
2018-02-03T18:07:49.929Z,9.10
2018-02-03T18:10:17.373Z,10.07
2018-02-03T18:12:44.805Z,9.50
2018-02-03T18:15:12.229Z,9.25
2018-02-03T18:17:39.836Z,9.68
2018-02-03T18:20:07.292Z,9.73
2018-02-03T18:22:34.746Z,9.32
2018-02-03T18:25:02.220Z,9.50
2018-02-03T18:27:29.648Z,9.85
2018-02-03T18:29:57.137Z,9.20
2018-02-03T18:32:24.689Z,9.00
2018-02-03T18:34:52.156Z,9.38
2018-02-03T18:37:19.586Z,9.68
2018-02-03T18:39:47.078Z,9.82
2018-02-03T18:42:14.602Z,10.75
2018-02-03T18:44:42.097Z,10.20
2018-02-03T18:47:09.647Z,10.20
2018-02-03T18:49:37.083Z,9.82
2018-02-03T18:52:04.530Z,10.30
2018-02-03T18:54:31.965Z,10.10
2018-02-03T18:57:00.171Z,10.80
2018-02-03T18:59:27.655Z,9.68
2018-02-03T19:01:55.093Z,11.10
2018-02-03T19:04:22.576Z,13.43
2018-02-03T19:06:50.014Z,11.95
2018-02-03T19:09:17.475Z,12.35
2018-02-03T19:11:44.938Z,11.85
2018-02-03T19:14:12.442Z,12.43
2018-02-03T19:16:39.936Z,12.00
2018-02-03T19:19:07.365Z,12.60
2018-02-03T19:21:34.867Z,13.87
2018-02-03T19:24:02.306Z,15.02
2018-02-03T19:26:29.774Z,14.80
2018-02-03T19:28:57.214Z,13.90
2018-02-03T19:31:24.653Z,13.57
2018-02-03T19:33:52.134Z,15.85
2018-02-03T19:36:19.601Z,16.87
2018-02-03T19:38:47.049Z,15.95
2018-02-03T19:41:14.477Z,15.85
2018-02-03T19:43:41.913Z,16.25
2018-02-03T19:46:10.117Z,17.58
2018-02-03T19:48:37.549Z,16.08
2018-02-03T19:51:05.733Z,16.42
2018-02-03T19:53:33.361Z,16.60
2018-02-03T19:56:00.781Z,17.12
2018-02-03T19:58:28.323Z,17.20
2018-02-03T20:00:55.741Z,16.90
2018-02-03T20:03:23.958Z,16.65
2018-02-03T20:05:51.427Z,17.07
2018-02-03T20:08:18.857Z,17.50
2018-02-03T20:10:46.292Z,16.87
2018-02-03T20:13:14.494Z,17.92
2018-02-03T20:15:41.921Z,17.20
2018-02-03T20:18:10.118Z,16.95
2018-02-03T20:20:37.589Z,15.23
2018-02-03T20:23:05.817Z,16.23
2018-02-03T20:25:34.017Z,16.70
2018-02-03T20:28:01.487Z,17.83
2018-02-03T20:30:28.940Z,16.90
2018-02-03T20:32:56.349Z,17.00
2018-02-03T20:35:24.570Z,17.43
2018-02-03T20:37:52.147Z,17.08
2018-02-03T20:40:19.606Z,18.10
2018-02-03T20:42:47.147Z,16.85
2018-02-03T20:45:14.622Z,16.75
2018-02-03T20:47:42.066Z,19.35
2018-02-03T20:50:09.510Z,17.20
2018-02-03T20:52:36.942Z,17.48
2018-02-03T20:55:05.138Z,18.23
2018-02-03T20:57:32.572Z,18.33
2018-02-03T21:00:00.042Z,17.60
2018-02-03T21:02:27.553Z,18.20
2018-02-03T21:04:54.993Z,18.45
2018-02-03T21:07:22.531Z,18.70
2018-02-03T21:09:49.966Z,19.37
2018-02-03T21:12:18.147Z,19.95
2018-02-03T21:14:46.505Z,19.57
2018-02-03T21:17:14.940Z,18.47
2018-02-03T21:19:42.370Z,18.87
2018-02-03T21:22:09.819Z,18.02
2018-02-03T21:24:37.253Z,19.65
2018-02-03T21:27:05.562Z,17.73
2018-02-03T21:29:33.019Z,18.23
2018-02-03T21:32:00.473Z,17.83
2018-02-03T21:34:28.969Z,18.12
2018-02-03T21:36:56.408Z,19.85
2018-02-03T21:39:23.882Z,19.73
2018-02-03T21:41:51.441Z,18.85
2018-02-03T21:44:18.881Z,18.73
2018-02-03T21:46:46.310Z,17.50
2018-02-03T21:49:14.525Z,18.52
2018-02-03T21:51:41.984Z,20.48
2018-02-03T21:54:09.421Z,18.15
2018-02-03T21:56:36.907Z,19.65
2018-02-03T21:59:04.354Z,18.87
2018-02-03T22:01:31.809Z,19.00
2018-02-03T22:03:59.252Z,19.12
2018-02-03T22:06:26.686Z,22.55
2018-02-03T22:08:54.125Z,20.65
2018-02-03T22:11:22.360Z,18.87
2018-02-03T22:13:49.810Z,18.02
2018-02-03T22:16:17.257Z,16.05
2018-02-03T22:18:44.723Z,19.87
2018-02-03T22:21:12.187Z,18.77
2018-02-03T22:23:39.634Z,18.35
2018-02-03T22:26:07.195Z,18.42
2018-02-03T22:28:34.735Z,18.60
2018-02-03T22:31:02.314Z,16.83
2018-02-03T22:33:30.582Z,16.95
2018-02-03T22:35:58.009Z,16.90
2018-02-03T22:38:25.594Z,17.05
2018-02-03T22:40:53.061Z,15.85
2018-02-03T22:43:20.501Z,16.92
2018-02-03T22:45:47.939Z,17.87
2018-02-03T22:48:15.379Z,16.27
2018-02-03T22:50:43.597Z,16.37
2018-02-03T22:53:11.056Z,16.95
2018-02-03T22:55:38.618Z,16.30
2018-02-03T22:58:06.163Z,14.98
2018-02-03T23:00:35.706Z,16.95
2018-02-03T23:03:01.425Z,16.07
2018-02-03T23:05:28.865Z,15.05
2018-02-03T23:07:56.314Z,15.90
2018-02-03T23:10:23.748Z,15.07
2018-02-03T23:12:51.194Z,15.43
2018-02-03T23:15:18.783Z,15.13
2018-02-03T23:17:46.211Z,14.47
2018-02-03T23:20:13.653Z,16.20
2018-02-03T23:22:41.157Z,15.20
2018-02-03T23:25:08.597Z,15.07
2018-02-03T23:27:36.047Z,14.60
2018-02-03T23:30:03.517Z,13.38
2018-02-03T23:32:30.973Z,14.68
2018-02-03T23:34:58.413Z,14.52
2018-02-03T23:37:25.877Z,13.93
2018-02-03T23:39:53.333Z,13.75
2018-02-03T23:42:20.795Z,14.03
2018-02-03T23:44:48.246Z,13.68
2018-02-03T23:47:15.674Z,13.93
2018-02-03T23:49:43.267Z,14.27
2018-02-03T23:52:10.718Z,14.48
2018-02-03T23:54:38.197Z,14.25
2018-02-03T23:57:05.631Z,14.57
2018-02-03T23:59:33.089Z,14.93
